sensor_id;sensor_type;location;lat;lon;timestamp;P1;durP1;ratioP1;P2;durP2;ratioP2
1999;SDS011;1001;48.87406500;9.59633600;2022-09-17T00:00:27;2.93;;;2.37;;
1999;SDS011;1001;48.87406500;9.59633600;2022-09-17T00:02:54;2.67;;;2.00;;
1999;SDS011;1001;48.87406500;9.59633600;2022-09-17T00:05:21;3.47;;;2.40;;
1999;SDS011;1001;48.87406500;9.59633600;2022-09-17T00:07:48;3.20;;;2.57;;
1999;SDS011;1001;48.87406500;9.59633600;2022-09-17T00:10:15;2.73;;;2.10;;
1999;SDS011;1001;48.87406500;9.59633600;2022-09-17T00:12:42;8.27;;;2.97;;
1999;SDS011;1001;48.87406500;9.59633600;2022-09-17T00:15:11;2.70;;;2.37;;
1999;SDS011;1001;48.87406500;9.59633600;2022-09-17T00:17:38;8.93;;;2.27;;
1999;SDS011;1001;48.87406500;9.59633600;2022-09-17T00:20:05;2.63;;;2.43;;
1999;SDS011;1001;48.87406500;9.59633600;2022-09-17T00:22:34;2.63;;;2.43;;
1999;SDS011;1001;48.87406500;9.59633600;2022-09-17T00:25:00;4.10;;;2.23;;
1999;SDS011;1001;48.87406500;9.59633600;2022-09-17T00:27:27;5.40;;;2.50;;
1999;SDS011;1001;48.87406500;9.59633600;2022-09-17T00:29:54;2.77;;;2.30;;
1999;SDS011;1001;48.87406500;9.59633600;2022-09-17T00:32:21;2.77;;;2.00;;
1999;SDS011;1001;48.87406500;9.59633600;2022-09-17T00:34:48;3.07;;;2.47;;
1999;SDS011;1001;48.87406500;9.59633600;2022-09-17T00:37:16;2.57;;;2.37;;
1999;SDS011;1001;48.87406500;9.59633600;2022-09-17T00:39:42;6.20;;;2.00;;
1999;SDS011;1001;48.87406500;9.59633600;2022-09-17T00:42:09;2.90;;;2.27;;
1999;SDS011;1001;48.87406500;9.59633600;2022-09-17T00:44:40;3.70;;;2.23;;
1999;SDS011;1001;48.87406500;9.59633600;2022-09-17T00:47:23;2.00;;;1.80;;
1999;SDS011;1001;48.87406500;9.59633600;2022-09-17T00:49:55;3.27;;;2.30;;
1999;SDS011;1001;48.87406500;9.59633600;2022-09-17T00:52:26;2.93;;;2.00;;
1999;SDS011;1001;48.87406500;9.59633600;2022-09-17T00:54:57;2.40;;;2.00;;
1999;SDS011;1001;48.87406500;9.59633600;2022-09-17T00:57:30;2.27;;;1.80;;
1999;SDS011;1001;48.87406500;9.59633600;2022-09-17T00:59:57;2.80;;;1.80;;
1999;SDS011;1001;48.87406500;9.59633600;2022-09-17T01:02:25;2.40;;;1.90;;
1999;SDS011;1001;48.87406500;9.59633600;2022-09-17T01:04:52;1.70;;;1.60;;
1999;SDS011;1001;48.87406500;9.59633600;2022-09-17T01:07:30;3.43;;;2.00;;
1999;SDS011;1001;48.87406500;9.59633600;2022-09-17T01:10:11;1.93;;;1.73;;
1999;SDS011;1001;48.87406500;9.59633600;2022-09-17T01:12:50;2.90;;;2.10;;
1999;SDS011;1001;48.87406500;9.59633600;2022-09-17T01:15:31;2.47;;;1.70;;
1999;SDS011;1001;48.87406500;9.59633600;2022-09-17T01:18:09;2.60;;;1.97;;
1999;SDS011;1001;48.87406500;9.59633600;2022-09-17T01:20:56;1.83;;;1.73;;
1999;SDS011;1001;48.87406500;9.59633600;2022-09-17T01:23:48;2.13;;;1.70;;
1999;SDS011;1001;48.87406500;9.59633600;2022-09-17T01:29:34;3.17;;;2.23;;
1999;SDS011;1001;48.87406500;9.59633600;2022-09-17T01:32:19;3.73;;;2.80;;
1999;SDS011;1001;48.87406500;9.59633600;2022-09-17T01:34:55;3.13;;;2.83;;
1999;SDS011;1001;48.87406500;9.59633600;2022-09-17T01:37:29;3.10;;;2.60;;
1999;SDS011;1001;48.87406500;9.59633600;2022-09-17T01:40:00;3.47;;;2.73;;
1999;SDS011;1001;48.87406500;9.59633600;2022-09-17T01:42:34;4.23;;;3.10;;
1999;SDS011;1001;48.87406500;9.59633600;2022-09-17T01:45:07;5.23;;;3.17;;
1999;SDS011;1001;48.87406500;9.59633600;2022-09-17T01:47:39;2.83;;;2.53;;
1999;SDS011;1001;48.87406500;9.59633600;2022-09-17T01:50:10;3.13;;;2.77;;
1999;SDS011;1001;48.87406500;9.59633600;2022-09-17T01:52:41;3.70;;;2.70;;
1999;SDS011;1001;48.87406500;9.59633600;2022-09-17T01:55:12;3.20;;;2.90;;
1999;SDS011;1001;48.87406500;9.59633600;2022-09-17T01:57:42;4.40;;;3.43;;
1999;SDS011;1001;48.87406500;9.59633600;2022-09-17T02:00:13;4.10;;;3.40;;
1999;SDS011;1001;48.87406500;9.59633600;2022-09-17T02:02:43;4.20;;;2.50;;
1999;SDS011;1001;48.87406500;9.59633600;2022-09-17T02:05:14;2.63;;;2.30;;
1999;SDS011;1001;48.87406500;9.59633600;2022-09-17T02:07:46;4.10;;;2.30;;
1999;SDS011;1001;48.87406500;9.59633600;2022-09-17T02:10:18;4.67;;;2.23;;
1999;SDS011;1001;48.87406500;9.59633600;2022-09-17T02:12:49;4.13;;;3.10;;
1999;SDS011;1001;48.87406500;9.59633600;2022-09-17T02:15:23;3.33;;;2.60;;
1999;SDS011;1001;48.87406500;9.59633600;2022-09-17T02:17:56;4.63;;;2.70;;
1999;SDS011;1001;48.87406500;9.59633600;2022-09-17T02:20:29;6.30;;;3.10;;
1999;SDS011;1001;48.87406500;9.59633600;2022-09-17T02:23:05;3.57;;;3.27;;
1999;SDS011;1001;48.87406500;9.59633600;2022-09-17T02:25:37;4.27;;;2.63;;
1999;SDS011;1001;48.87406500;9.59633600;2022-09-17T02:28:10;3.07;;;2.47;;
1999;SDS011;1001;48.87406500;9.59633600;2022-09-17T02:30:42;3.40;;;2.60;;
1999;SDS011;1001;48.87406500;9.59633600;2022-09-17T02:33:11;4.20;;;2.73;;
1999;SDS011;1001;48.87406500;9.59633600;2022-09-17T02:35:39;4.47;;;4.07;;
1999;SDS011;1001;48.87406500;9.59633600;2022-09-17T02:38:07;6.83;;;2.70;;
1999;SDS011;1001;48.87406500;9.59633600;2022-09-17T02:40:35;3.70;;;2.50;;
1999;SDS011;1001;48.87406500;9.59633600;2022-09-17T02:43:09;4.77;;;3.50;;
1999;SDS011;1001;48.87406500;9.59633600;2022-09-17T02:45:45;4.40;;;2.87;;
1999;SDS011;1001;48.87406500;9.59633600;2022-09-17T02:48:30;3.80;;;3.30;;
1999;SDS011;1001;48.87406500;9.59633600;2022-09-17T02:51:22;4.53;;;2.50;;
1999;SDS011;1001;48.87406500;9.59633600;2022-09-17T02:54:00;4.40;;;2.83;;
1999;SDS011;1001;48.87406500;9.59633600;2022-09-17T02:56:39;6.30;;;3.63;;
1999;SDS011;1001;48.87406500;9.59633600;2022-09-17T02:59:13;11.97;;;3.30;;
1999;SDS011;1001;48.87406500;9.59633600;2022-09-17T03:01:45;9.73;;;3.80;;
1999;SDS011;1001;48.87406500;9.59633600;2022-09-17T03:04:20;4.57;;;3.30;;
1999;SDS011;1001;48.87406500;9.59633600;2022-09-17T03:06:49;6.27;;;3.60;;
1999;SDS011;1001;48.87406500;9.59633600;2022-09-17T03:09:17;5.43;;;3.80;;
1999;SDS011;1001;48.87406500;9.59633600;2022-09-17T03:11:44;3.80;;;3.20;;
1999;SDS011;1001;48.87406500;9.59633600;2022-09-17T03:14:10;4.77;;;3.63;;
1999;SDS011;1001;48.87406500;9.59633600;2022-09-17T03:16:37;5.40;;;2.50;;
1999;SDS011;1001;48.87406500;9.59633600;2022-09-17T03:19:03;5.10;;;3.30;;
1999;SDS011;1001;48.87406500;9.59633600;2022-09-17T03:21:31;4.57;;;3.10;;
1999;SDS011;1001;48.87406500;9.59633600;2022-09-17T03:23:58;6.70;;;2.80;;
1999;SDS011;1001;48.87406500;9.59633600;2022-09-17T03:26:25;6.93;;;2.87;;
1999;SDS011;1001;48.87406500;9.59633600;2022-09-17T03:28:51;5.47;;;3.20;;
1999;SDS011;1001;48.87406500;9.59633600;2022-09-17T03:31:18;7.50;;;3.13;;
1999;SDS011;1001;48.87406500;9.59633600;2022-09-17T03:33:45;5.93;;;3.07;;
1999;SDS011;1001;48.87406500;9.59633600;2022-09-17T03:36:11;6.73;;;3.00;;
1999;SDS011;1001;48.87406500;9.59633600;2022-09-17T03:38:39;5.73;;;3.37;;
1999;SDS011;1001;48.87406500;9.59633600;2022-09-17T03:41:06;5.30;;;3.47;;
1999;SDS011;1001;48.87406500;9.59633600;2022-09-17T03:43:32;5.40;;;2.63;;
1999;SDS011;1001;48.87406500;9.59633600;2022-09-17T03:45:59;7.70;;;2.63;;
1999;SDS011;1001;48.87406500;9.59633600;2022-09-17T03:48:26;5.93;;;2.60;;
1999;SDS011;1001;48.87406500;9.59633600;2022-09-17T03:50:53;5.50;;;2.93;;
1999;SDS011;1001;48.87406500;9.59633600;2022-09-17T03:53:20;5.33;;;2.80;;
1999;SDS011;1001;48.87406500;9.59633600;2022-09-17T03:55:48;7.67;;;2.67;;
1999;SDS011;1001;48.87406500;9.59633600;2022-09-17T03:58:15;6.13;;;2.93;;
1999;SDS011;1001;48.87406500;9.59633600;2022-09-17T04:00:41;6.97;;;2.60;;
1999;SDS011;1001;48.87406500;9.59633600;2022-09-17T04:03:08;4.43;;;4.03;;
1999;SDS011;1001;48.87406500;9.59633600;2022-09-17T04:05:34;5.70;;;3.13;;
1999;SDS011;1001;48.87406500;9.59633600;2022-09-17T04:08:01;7.20;;;2.97;;
1999;SDS011;1001;48.87406500;9.59633600;2022-09-17T04:10:28;4.13;;;3.00;;
1999;SDS011;1001;48.87406500;9.59633600;2022-09-17T04:12:56;4.00;;;3.60;;
1999;SDS011;1001;48.87406500;9.59633600;2022-09-17T04:15:22;4.90;;;3.87;;
1999;SDS011;1001;48.87406500;9.59633600;2022-09-17T04:17:49;4.67;;;3.70;;
1999;SDS011;1001;48.87406500;9.59633600;2022-09-17T04:20:15;5.90;;;4.57;;
1999;SDS011;1001;48.87406500;9.59633600;2022-09-17T04:22:42;7.10;;;4.10;;
1999;SDS011;1001;48.87406500;9.59633600;2022-09-17T04:25:09;5.80;;;4.10;;
1999;SDS011;1001;48.87406500;9.59633600;2022-09-17T04:27:36;12.00;;;5.40;;
1999;SDS011;1001;48.87406500;9.59633600;2022-09-17T04:30:04;6.33;;;4.40;;
1999;SDS011;1001;48.87406500;9.59633600;2022-09-17T04:32:31;9.77;;;4.33;;
1999;SDS011;1001;48.87406500;9.59633600;2022-09-17T04:34:58;5.83;;;4.70;;
1999;SDS011;1001;48.87406500;9.59633600;2022-09-17T04:37:25;6.50;;;4.87;;
1999;SDS011;1001;48.87406500;9.59633600;2022-09-17T04:39:51;6.20;;;4.57;;
1999;SDS011;1001;48.87406500;9.59633600;2022-09-17T04:42:18;4.30;;;3.90;;
1999;SDS011;1001;48.87406500;9.59633600;2022-09-17T04:44:44;6.93;;;4.73;;
1999;SDS011;1001;48.87406500;9.59633600;2022-09-17T04:47:12;4.57;;;3.97;;
1999;SDS011;1001;48.87406500;9.59633600;2022-09-17T04:49:39;4.77;;;4.10;;
1999;SDS011;1001;48.87406500;9.59633600;2022-09-17T04:52:06;5.90;;;4.60;;
1999;SDS011;1001;48.87406500;9.59633600;2022-09-17T04:54:32;8.77;;;4.10;;
1999;SDS011;1001;48.87406500;9.59633600;2022-09-17T04:56:59;7.50;;;4.53;;
1999;SDS011;1001;48.87406500;9.59633600;2022-09-17T04:59:26;4.77;;;4.23;;
1999;SDS011;1001;48.87406500;9.59633600;2022-09-17T05:01:52;3.90;;;3.50;;
1999;SDS011;1001;48.87406500;9.59633600;2022-09-17T05:04:20;7.47;;;4.33;;
1999;SDS011;1001;48.87406500;9.59633600;2022-09-17T05:06:47;5.20;;;3.80;;
1999;SDS011;1001;48.87406500;9.59633600;2022-09-17T05:09:14;3.60;;;3.30;;
1999;SDS011;1001;48.87406500;9.59633600;2022-09-17T05:11:40;6.37;;;4.10;;
1999;SDS011;1001;48.87406500;9.59633600;2022-09-17T05:14:07;4.10;;;3.23;;
1999;SDS011;1001;48.87406500;9.59633600;2022-09-17T05:16:34;7.90;;;3.80;;
1999;SDS011;1001;48.87406500;9.59633600;2022-09-17T05:19:00;3.20;;;2.90;;
1999;SDS011;1001;48.87406500;9.59633600;2022-09-17T05:21:29;6.03;;;3.77;;
1999;SDS011;1001;48.87406500;9.59633600;2022-09-17T05:23:56;5.80;;;3.80;;
1999;SDS011;1001;48.87406500;9.59633600;2022-09-17T05:26:22;9.63;;;4.33;;
1999;SDS011;1001;48.87406500;9.59633600;2022-09-17T05:28:49;7.87;;;3.80;;
1999;SDS011;1001;48.87406500;9.59633600;2022-09-17T05:31:15;4.73;;;3.40;;
1999;SDS011;1001;48.87406500;9.59633600;2022-09-17T05:33:42;9.63;;;4.80;;
1999;SDS011;1001;48.87406500;9.59633600;2022-09-17T05:36:09;10.10;;;4.70;;
1999;SDS011;1001;48.87406500;9.59633600;2022-09-17T05:38:37;7.30;;;3.70;;
1999;SDS011;1001;48.87406500;9.59633600;2022-09-17T05:41:03;4.47;;;4.00;;
1999;SDS011;1001;48.87406500;9.59633600;2022-09-17T05:43:31;7.40;;;4.93;;
1999;SDS011;1001;48.87406500;9.59633600;2022-09-17T05:45:59;6.47;;;4.57;;
1999;SDS011;1001;48.87406500;9.59633600;2022-09-17T05:48:27;8.20;;;4.50;;
1999;SDS011;1001;48.87406500;9.59633600;2022-09-17T05:50:53;6.17;;;4.80;;
1999;SDS011;1001;48.87406500;9.59633600;2022-09-17T05:53:20;4.73;;;4.23;;
1999;SDS011;1001;48.87406500;9.59633600;2022-09-17T05:55:48;12.80;;;5.00;;
1999;SDS011;1001;48.87406500;9.59633600;2022-09-17T05:58:15;9.00;;;4.70;;
1999;SDS011;1001;48.87406500;9.59633600;2022-09-17T06:00:43;9.90;;;4.37;;
1999;SDS011;1001;48.87406500;9.59633600;2022-09-17T06:03:13;9.93;;;4.60;;
1999;SDS011;1001;48.87406500;9.59633600;2022-09-17T06:05:41;8.40;;;5.27;;
1999;SDS011;1001;48.87406500;9.59633600;2022-09-17T06:08:08;5.83;;;4.87;;
1999;SDS011;1001;48.87406500;9.59633600;2022-09-17T06:10:34;6.47;;;4.93;;
1999;SDS011;1001;48.87406500;9.59633600;2022-09-17T06:13:03;8.53;;;4.47;;
1999;SDS011;1001;48.87406500;9.59633600;2022-09-17T06:15:30;6.90;;;4.70;;
1999;SDS011;1001;48.87406500;9.59633600;2022-09-17T06:17:57;10.77;;;4.43;;
1999;SDS011;1001;48.87406500;9.59633600;2022-09-17T06:20:23;11.87;;;5.10;;
1999;SDS011;1001;48.87406500;9.59633600;2022-09-17T06:22:54;8.50;;;5.13;;
1999;SDS011;1001;48.87406500;9.59633600;2022-09-17T06:25:21;10.93;;;5.13;;
1999;SDS011;1001;48.87406500;9.59633600;2022-09-17T06:27:48;11.00;;;5.10;;
1999;SDS011;1001;48.87406500;9.59633600;2022-09-17T06:30:16;9.53;;;4.70;;
1999;SDS011;1001;48.87406500;9.59633600;2022-09-17T06:32:43;6.43;;;4.27;;
1999;SDS011;1001;48.87406500;9.59633600;2022-09-17T06:35:10;6.67;;;4.80;;
1999;SDS011;1001;48.87406500;9.59633600;2022-09-17T06:37:36;5.97;;;4.50;;
1999;SDS011;1001;48.87406500;9.59633600;2022-09-17T06:40:05;6.70;;;4.90;;
1999;SDS011;1001;48.87406500;9.59633600;2022-09-17T06:42:32;6.27;;;5.10;;
1999;SDS011;1001;48.87406500;9.59633600;2022-09-17T06:44:59;7.33;;;4.43;;
1999;SDS011;1001;48.87406500;9.59633600;2022-09-17T06:47:27;6.00;;;4.60;;
1999;SDS011;1001;48.87406500;9.59633600;2022-09-17T06:49:53;10.63;;;4.43;;
1999;SDS011;1001;48.87406500;9.59633600;2022-09-17T06:52:21;8.63;;;4.90;;
1999;SDS011;1001;48.87406500;9.59633600;2022-09-17T06:54:47;6.87;;;4.93;;
1999;SDS011;1001;48.87406500;9.59633600;2022-09-17T06:57:14;5.10;;;4.23;;
1999;SDS011;1001;48.87406500;9.59633600;2022-09-17T06:59:41;4.73;;;4.23;;
1999;SDS011;1001;48.87406500;9.59633600;2022-09-17T07:02:07;5.57;;;4.17;;
1999;SDS011;1001;48.87406500;9.59633600;2022-09-17T07:04:36;6.00;;;4.10;;
1999;SDS011;1001;48.87406500;9.59633600;2022-09-17T07:07:02;7.63;;;5.13;;
1999;SDS011;1001;48.87406500;9.59633600;2022-09-17T07:09:29;6.87;;;4.60;;
1999;SDS011;1001;48.87406500;9.59633600;2022-09-17T07:11:56;5.73;;;4.10;;
1999;SDS011;1001;48.87406500;9.59633600;2022-09-17T07:14:23;4.93;;;4.43;;
1999;SDS011;1001;48.87406500;9.59633600;2022-09-17T07:16:51;7.60;;;5.00;;
1999;SDS011;1001;48.87406500;9.59633600;2022-09-17T07:19:17;7.57;;;4.20;;
1999;SDS011;1001;48.87406500;9.59633600;2022-09-17T07:21:46;4.87;;;4.03;;
1999;SDS011;1001;48.87406500;9.59633600;2022-09-17T07:24:13;8.57;;;4.73;;
1999;SDS011;1001;48.87406500;9.59633600;2022-09-17T07:26:40;5.30;;;3.97;;
1999;SDS011;1001;48.87406500;9.59633600;2022-09-17T07:29:06;7.97;;;5.00;;
1999;SDS011;1001;48.87406500;9.59633600;2022-09-17T07:31:33;5.40;;;3.90;;
1999;SDS011;1001;48.87406500;9.59633600;2022-09-17T07:33:59;4.20;;;3.80;;
1999;SDS011;1001;48.87406500;9.59633600;2022-09-17T07:36:26;6.57;;;3.70;;
1999;SDS011;1001;48.87406500;9.59633600;2022-09-17T07:38:54;8.10;;;4.30;;
1999;SDS011;1001;48.87406500;9.59633600;2022-09-17T07:41:21;5.90;;;3.90;;
1999;SDS011;1001;48.87406500;9.59633600;2022-09-17T07:43:50;9.27;;;4.47;;
1999;SDS011;1001;48.87406500;9.59633600;2022-09-17T07:46:18;6.87;;;4.40;;
1999;SDS011;1001;48.87406500;9.59633600;2022-09-17T07:48:45;6.97;;;4.93;;
1999;SDS011;1001;48.87406500;9.59633600;2022-09-17T07:51:14;5.77;;;5.03;;
1999;SDS011;1001;48.87406500;9.59633600;2022-09-17T07:53:41;5.40;;;4.90;;
1999;SDS011;1001;48.87406500;9.59633600;2022-09-17T07:56:09;8.67;;;5.23;;
1999;SDS011;1001;48.87406500;9.59633600;2022-09-17T07:58:35;6.93;;;5.00;;
1999;SDS011;1001;48.87406500;9.59633600;2022-09-17T08:01:02;5.67;;;5.17;;
1999;SDS011;1001;48.87406500;9.59633600;2022-09-17T08:03:31;56.73;;;10.73;;
1999;SDS011;1001;48.87406500;9.59633600;2022-09-17T08:06:01;5.63;;;5.13;;
1999;SDS011;1001;48.87406500;9.59633600;2022-09-17T08:08:29;5.50;;;5.00;;
1999;SDS011;1001;48.87406500;9.59633600;2022-09-17T08:10:58;5.47;;;4.97;;
1999;SDS011;1001;48.87406500;9.59633600;2022-09-17T08:13:27;6.97;;;5.23;;
1999;SDS011;1001;48.87406500;9.59633600;2022-09-17T08:15:56;6.03;;;5.40;;
1999;SDS011;1001;48.87406500;9.59633600;2022-09-17T08:18:24;5.90;;;5.40;;
1999;SDS011;1001;48.87406500;9.59633600;2022-09-17T08:20:51;8.53;;;5.97;;
1999;SDS011;1001;48.87406500;9.59633600;2022-09-17T08:23:21;8.87;;;6.30;;
1999;SDS011;1001;48.87406500;9.59633600;2022-09-17T08:25:50;7.27;;;6.27;;
1999;SDS011;1001;48.87406500;9.59633600;2022-09-17T08:28:18;10.00;;;5.87;;
1999;SDS011;1001;48.87406500;9.59633600;2022-09-17T08:30:45;8.30;;;6.57;;
1999;SDS011;1001;48.87406500;9.59633600;2022-09-17T08:33:14;11.50;;;6.60;;
1999;SDS011;1001;48.87406500;9.59633600;2022-09-17T08:35:41;9.50;;;6.40;;
1999;SDS011;1001;48.87406500;9.59633600;2022-09-17T08:38:07;7.93;;;6.10;;
1999;SDS011;1001;48.87406500;9.59633600;2022-09-17T08:40:35;11.30;;;6.47;;
1999;SDS011;1001;48.87406500;9.59633600;2022-09-17T08:43:08;8.10;;;6.13;;
1999;SDS011;1001;48.87406500;9.59633600;2022-09-17T08:45:40;11.87;;;7.30;;
1999;SDS011;1001;48.87406500;9.59633600;2022-09-17T08:48:08;8.13;;;6.30;;
1999;SDS011;1001;48.87406500;9.59633600;2022-09-17T08:50:39;9.80;;;7.10;;
1999;SDS011;1001;48.87406500;9.59633600;2022-09-17T08:53:10;10.77;;;7.20;;
1999;SDS011;1001;48.87406500;9.59633600;2022-09-17T08:55:54;9.67;;;7.27;;
1999;SDS011;1001;48.87406500;9.59633600;2022-09-17T08:58:32;10.20;;;7.00;;
1999;SDS011;1001;48.87406500;9.59633600;2022-09-17T09:01:15;9.30;;;6.80;;
1999;SDS011;1001;48.87406500;9.59633600;2022-09-17T09:03:57;11.53;;;6.90;;
1999;SDS011;1001;48.87406500;9.59633600;2022-09-17T09:06:38;12.17;;;7.63;;
1999;SDS011;1001;48.87406500;9.59633600;2022-09-17T09:09:12;9.83;;;7.20;;
1999;SDS011;1001;48.87406500;9.59633600;2022-09-17T09:11:41;9.37;;;7.00;;
1999;SDS011;1001;48.87406500;9.59633600;2022-09-17T09:14:10;15.70;;;7.47;;
1999;SDS011;1001;48.87406500;9.59633600;2022-09-17T09:16:45;9.47;;;7.27;;
1999;SDS011;1001;48.87406500;9.59633600;2022-09-17T09:19:20;10.83;;;7.10;;
1999;SDS011;1001;48.87406500;9.59633600;2022-09-17T09:21:56;13.83;;;6.67;;
1999;SDS011;1001;48.87406500;9.59633600;2022-09-17T09:24:30;16.50;;;6.57;;
1999;SDS011;1001;48.87406500;9.59633600;2022-09-17T09:27:11;8.50;;;6.73;;
1999;SDS011;1001;48.87406500;9.59633600;2022-09-17T09:29:43;14.80;;;6.13;;
1999;SDS011;1001;48.87406500;9.59633600;2022-09-17T09:32:23;8.10;;;5.80;;
1999;SDS011;1001;48.87406500;9.59633600;2022-09-17T09:35:10;8.90;;;6.07;;
1999;SDS011;1001;48.87406500;9.59633600;2022-09-17T09:37:42;7.83;;;5.97;;
1999;SDS011;1001;48.87406500;9.59633600;2022-09-17T09:40:16;10.90;;;5.37;;
1999;SDS011;1001;48.87406500;9.59633600;2022-09-17T09:42:49;10.00;;;5.60;;
1999;SDS011;1001;48.87406500;9.59633600;2022-09-17T09:45:23;7.40;;;5.50;;
1999;SDS011;1001;48.87406500;9.59633600;2022-09-17T09:47:56;9.10;;;4.73;;
1999;SDS011;1001;48.87406500;9.59633600;2022-09-17T09:50:35;9.27;;;5.07;;
1999;SDS011;1001;48.87406500;9.59633600;2022-09-17T09:53:10;9.37;;;4.20;;
1999;SDS011;1001;48.87406500;9.59633600;2022-09-17T09:55:51;10.23;;;3.93;;
1999;SDS011;1001;48.87406500;9.59633600;2022-09-17T09:58:29;5.50;;;3.70;;
1999;SDS011;1001;48.87406500;9.59633600;2022-09-17T10:00:59;7.27;;;4.17;;
1999;SDS011;1001;48.87406500;9.59633600;2022-09-17T10:03:26;8.83;;;4.27;;
1999;SDS011;1001;48.87406500;9.59633600;2022-09-17T10:05:57;10.70;;;4.90;;
1999;SDS011;1001;48.87406500;9.59633600;2022-09-17T10:08:26;7.60;;;4.50;;
1999;SDS011;1001;48.87406500;9.59633600;2022-09-17T10:10:57;7.77;;;3.40;;
1999;SDS011;1001;48.87406500;9.59633600;2022-09-17T10:13:26;7.50;;;4.13;;
1999;SDS011;1001;48.87406500;9.59633600;2022-09-17T10:15:54;5.57;;;3.30;;
1999;SDS011;1001;48.87406500;9.59633600;2022-09-17T10:18:22;3.80;;;3.50;;
1999;SDS011;1001;48.87406500;9.59633600;2022-09-17T10:20:50;4.73;;;3.87;;
1999;SDS011;1001;48.87406500;9.59633600;2022-09-17T10:23:20;6.47;;;3.50;;
1999;SDS011;1001;48.87406500;9.59633600;2022-09-17T10:25:49;9.90;;;4.10;;
1999;SDS011;1001;48.87406500;9.59633600;2022-09-17T10:31:01;7.47;;;3.90;;
1999;SDS011;1001;48.87406500;9.59633600;2022-09-17T10:33:30;7.80;;;3.50;;
1999;SDS011;1001;48.87406500;9.59633600;2022-09-17T10:35:59;8.93;;;4.03;;
1999;SDS011;1001;48.87406500;9.59633600;2022-09-17T10:38:30;5.77;;;3.80;;
1999;SDS011;1001;48.87406500;9.59633600;2022-09-17T10:41:09;5.50;;;3.57;;
1999;SDS011;1001;48.87406500;9.59633600;2022-09-17T10:43:40;4.30;;;3.17;;
1999;SDS011;1001;48.87406500;9.59633600;2022-09-17T10:46:08;4.30;;;2.80;;
1999;SDS011;1001;48.87406500;9.59633600;2022-09-17T10:48:41;10.97;;;2.83;;
1999;SDS011;1001;48.87406500;9.59633600;2022-09-17T10:51:10;7.17;;;3.20;;
1999;SDS011;1001;48.87406500;9.59633600;2022-09-17T10:54:00;10.93;;;3.10;;
1999;SDS011;1001;48.87406500;9.59633600;2022-09-17T10:56:47;9.67;;;2.67;;
1999;SDS011;1001;48.87406500;9.59633600;2022-09-17T11:05:44;10.10;;;2.50;;
1999;SDS011;1001;48.87406500;9.59633600;2022-09-17T11:08:22;4.90;;;2.80;;
1999;SDS011;1001;48.87406500;9.59633600;2022-09-17T11:10:59;8.03;;;2.70;;
1999;SDS011;1001;48.87406500;9.59633600;2022-09-17T11:13:34;7.23;;;3.10;;
1999;SDS011;1001;48.87406500;9.59633600;2022-09-17T11:16:09;7.47;;;3.03;;
1999;SDS011;1001;48.87406500;9.59633600;2022-09-17T11:18:44;7.13;;;3.90;;
1999;SDS011;1001;48.87406500;9.59633600;2022-09-17T11:21:24;13.90;;;3.67;;
1999;SDS011;1001;48.87406500;9.59633600;2022-09-17T11:27:40;6.50;;;3.13;;
1999;SDS011;1001;48.87406500;9.59633600;2022-09-17T11:30:15;3.70;;;3.30;;
1999;SDS011;1001;48.87406500;9.59633600;2022-09-17T11:35:40;12.37;;;3.13;;
1999;SDS011;1001;48.87406500;9.59633600;2022-09-17T11:38:13;10.90;;;3.70;;
1999;SDS011;1001;48.87406500;9.59633600;2022-09-17T11:40:45;6.93;;;4.50;;
1999;SDS011;1001;48.87406500;9.59633600;2022-09-17T11:43:23;24.00;;;4.70;;
1999;SDS011;1001;48.87406500;9.59633600;2022-09-17T11:45:55;6.40;;;1.70;;
1999;SDS011;1001;48.87406500;9.59633600;2022-09-17T11:48:26;1.63;;;1.40;;
1999;SDS011;1001;48.87406500;9.59633600;2022-09-17T11:51:00;2.63;;;1.67;;
1999;SDS011;1001;48.87406500;9.59633600;2022-09-17T11:53:31;3.00;;;1.40;;
1999;SDS011;1001;48.87406500;9.59633600;2022-09-17T11:56:04;2.13;;;1.23;;
1999;SDS011;1001;48.87406500;9.59633600;2022-09-17T11:58:42;1.57;;;1.13;;
1999;SDS011;1001;48.87406500;9.59633600;2022-09-17T12:01:14;5.10;;;0.93;;
1999;SDS011;1001;48.87406500;9.59633600;2022-09-17T12:03:48;1.90;;;0.87;;
1999;SDS011;1001;48.87406500;9.59633600;2022-09-17T12:06:21;1.57;;;1.47;;
1999;SDS011;1001;48.87406500;9.59633600;2022-09-17T12:08:54;1.83;;;1.03;;
1999;SDS011;1001;48.87406500;9.59633600;2022-09-17T12:11:28;1.70;;;1.37;;
1999;SDS011;1001;48.87406500;9.59633600;2022-09-17T12:14:01;1.53;;;1.10;;
1999;SDS011;1001;48.87406500;9.59633600;2022-09-17T12:16:32;1.40;;;1.00;;
1999;SDS011;1001;48.87406500;9.59633600;2022-09-17T12:19:03;1.33;;;1.00;;
1999;SDS011;1001;48.87406500;9.59633600;2022-09-17T12:21:36;1.73;;;1.10;;
1999;SDS011;1001;48.87406500;9.59633600;2022-09-17T12:24:09;3.30;;;1.27;;
1999;SDS011;1001;48.87406500;9.59633600;2022-09-17T12:26:45;1.90;;;1.60;;
1999;SDS011;1001;48.87406500;9.59633600;2022-09-17T12:29:38;4.07;;;1.63;;
1999;SDS011;1001;48.87406500;9.59633600;2022-09-17T12:32:20;3.77;;;1.60;;
1999;SDS011;1001;48.87406500;9.59633600;2022-09-17T12:34:57;5.60;;;1.97;;
1999;SDS011;1001;48.87406500;9.59633600;2022-09-17T12:37:31;5.30;;;2.10;;
1999;SDS011;1001;48.87406500;9.59633600;2022-09-17T12:40:14;3.67;;;2.00;;
1999;SDS011;1001;48.87406500;9.59633600;2022-09-17T12:42:56;9.80;;;1.90;;
1999;SDS011;1001;48.87406500;9.59633600;2022-09-17T12:45:47;2.83;;;1.90;;
1999;SDS011;1001;48.87406500;9.59633600;2022-09-17T12:48:33;3.50;;;2.07;;
1999;SDS011;1001;48.87406500;9.59633600;2022-09-17T12:51:13;3.30;;;2.47;;
1999;SDS011;1001;48.87406500;9.59633600;2022-09-17T12:53:57;3.50;;;2.90;;
1999;SDS011;1001;48.87406500;9.59633600;2022-09-17T12:56:37;2.70;;;2.20;;
1999;SDS011;1001;48.87406500;9.59633600;2022-09-17T12:59:15;3.97;;;2.27;;
1999;SDS011;1001;48.87406500;9.59633600;2022-09-17T13:01:47;4.13;;;1.90;;
1999;SDS011;1001;48.87406500;9.59633600;2022-09-17T13:07:33;3.37;;;1.93;;
1999;SDS011;1001;48.87406500;9.59633600;2022-09-17T13:10:17;2.70;;;1.70;;
1999;SDS011;1001;48.87406500;9.59633600;2022-09-17T13:12:54;1.40;;;1.30;;
1999;SDS011;1001;48.87406500;9.59633600;2022-09-17T13:15:33;4.90;;;2.10;;
1999;SDS011;1001;48.87406500;9.59633600;2022-09-17T13:18:11;2.40;;;2.07;;
1999;SDS011;1001;48.87406500;9.59633600;2022-09-17T13:20:48;4.50;;;1.90;;
1999;SDS011;1001;48.87406500;9.59633600;2022-09-17T13:23:32;6.80;;;1.80;;
1999;SDS011;1001;48.87406500;9.59633600;2022-09-17T13:26:03;5.93;;;1.80;;
1999;SDS011;1001;48.87406500;9.59633600;2022-09-17T13:28:41;7.33;;;2.10;;
1999;SDS011;1001;48.87406500;9.59633600;2022-09-17T13:31:09;3.37;;;1.40;;
1999;SDS011;1001;48.87406500;9.59633600;2022-09-17T13:33:53;3.20;;;1.03;;
1999;SDS011;1001;48.87406500;9.59633600;2022-09-17T13:36:36;6.70;;;2.17;;
1999;SDS011;1001;48.87406500;9.59633600;2022-09-17T13:39:06;3.80;;;1.27;;
1999;SDS011;1001;48.87406500;9.59633600;2022-09-17T13:41:35;3.93;;;1.33;;
1999;SDS011;1001;48.87406500;9.59633600;2022-09-17T13:44:04;1.73;;;1.20;;
1999;SDS011;1001;48.87406500;9.59633600;2022-09-17T13:46:33;3.03;;;1.40;;
1999;SDS011;1001;48.87406500;9.59633600;2022-09-17T13:49:03;2.43;;;1.20;;
1999;SDS011;1001;48.87406500;9.59633600;2022-09-17T13:51:45;1.73;;;1.27;;